Time;durP1;ratioP1;P1;durP2;ratioP2;P2;SDS_P1;SDS_P2;PMS_P1;PMS_P2;Temp;Humidity;BMP_temperature;BMP_pressure;BME280_temperature;BME280_humidity;BME280_pressure;Samples;Min_cycle;Max_cycle;Signal;HPM_P1;HPM_P2
2022/03/01 00:01:17;;;;;;;16.95;8.95;;;1.60;83.60;;;;;;5067584;28;20060;-65
2022/03/01 00:03:43;;;;;;;20.77;10.25;;;1.60;83.70;;;;;;5060627;28;20117;-65
2022/03/01 00:06:08;;;;;;;20.17;10.65;;;1.60;83.90;;;;;;5045598;28;20102;-65
2022/03/01 00:08:34;;;;;;;17.33;9.40;;;1.60;84.20;;;;;;5042821;28;20066;-65
2022/03/01 00:10:59;;;;;;;15.68;8.80;;;1.50;84.20;;;;;;5058657;28;20078;-66
2022/03/01 00:13:25;;;;;;;19.27;9.57;;;1.50;84.30;;;;;;5055091;28;20053;-65
2022/03/01 00:15:51;;;;;;;17.15;9.05;;;1.50;84.60;;;;;;5048388;28;20059;-66
2022/03/01 00:18:16;;;;;;;17.63;9.50;;;1.40;84.80;;;;;;5059572;28;20041;-65
2022/03/01 00:20:42;;;;;;;18.20;9.48;;;1.40;85.10;;;;;;5046587;28;20536;-65
2022/03/01 00:23:07;;;;;;;18.20;8.82;;;1.40;85.10;;;;;;5062439;28;20368;-66
2022/03/01 00:25:33;;;;;;;19.08;9.57;;;1.40;85.20;;;;;;5048179;28;20044;-65
2022/03/01 00:27:59;;;;;;;24.75;10.15;;;1.40;85.50;;;;;;5060589;28;20075;-65
2022/03/01 00:30:24;;;;;;;19.42;9.30;;;1.30;85.50;;;;;;5057745;28;20044;-65
2022/03/01 00:32:50;;;;;;;18.48;9.00;;;1.30;85.90;;;;;;5048544;28;20117;-66
2022/03/01 00:35:17;;;;;;;18.73;9.70;;;1.30;85.90;;;;;;5046716;28;20032;-65
2022/03/01 00:37:42;;;;;;;19.38;10.18;;;1.20;85.90;;;;;;5057904;28;20040;-66
2022/03/01 00:40:08;;;;;;;17.65;8.95;;;1.20;86.40;;;;;;5061656;28;20126;-65
2022/03/01 00:42:34;;;;;;;17.30;9.50;;;1.20;86.60;;;;;;5057836;28;20457;-66
2022/03/01 00:44:59;;;;;;;21.70;11.00;;;1.20;86.60;;;;;;5069572;28;20100;-65
2022/03/01 00:47:25;;;;;;;19.45;10.20;;;1.20;86.90;;;;;;5065413;28;20074;-66
2022/03/01 00:49:51;;;;;;;16.88;8.90;;;1.10;86.80;;;;;;5062987;28;20047;-65
2022/03/01 00:52:16;;;;;;;21.23;10.23;;;1.10;86.90;;;;;;5052091;28;20484;-66
2022/03/01 00:54:42;;;;;;;19.45;10.23;;;1.10;86.90;;;;;;5066397;28;20041;-66
2022/03/01 00:57:07;;;;;;;15.85;8.68;;;1.00;87.30;;;;;;5052781;28;20041;-66
2022/03/01 00:59:33;;;;;;;19.42;9.80;;;1.00;87.20;;;;;;5063058;28;20043;-65
2022/03/01 01:01:58;;;;;;;17.70;8.98;;;0.90;87.50;;;;;;5069114;28;20041;-65
2022/03/01 01:04:24;;;;;;;17.77;8.68;;;0.90;88.30;;;;;;5064451;28;20037;-66
2022/03/01 01:06:49;;;;;;;19.88;9.27;;;0.90;88.30;;;;;;5064204;28;20059;-65
2022/03/01 01:09:15;;;;;;;20.38;9.32;;;0.80;87.90;;;;;;5062988;28;20040;-66
2022/03/01 01:11:45;;;;;;;19.45;10.23;;;0.70;88.50;;;;;;5060220;28;20531;-66
2022/03/01 01:14:11;;;;;;;;;;;0.70;88.80;;;;;;5034480;28;20052;-65
2022/03/01 01:16:36;;;;;;;16.42;9.10;;;0.60;90.20;;;;;;5063344;28;19927;-66
2022/03/01 01:19:02;;;;;;;21.80;8.85;;;0.70;89.10;;;;;;5056208;28;20036;-66
2022/03/01 01:22:39;;;;;;;18.50;9.32;;;0.60;89.60;;;;;;5049192;28;20041;-65
2022/03/01 01:24:13;;;;;;;20.63;9.77;;;0.50;89.10;;;;;;5063829;28;20419;-65
2022/03/01 01:26:38;;;;;;;19.33;9.45;;;0.50;89.70;;;;;;5050707;28;20075;-65
2022/03/01 01:29:04;;;;;;;17.90;8.90;;;0.50;90.00;;;;;;5050343;28;20522;-66
2022/03/01 01:31:30;;;;;;;17.70;9.50;;;0.50;90.10;;;;;;5066497;28;20086;-66
2022/03/01 01:33:55;;;;;;;20.83;10.20;;;0.50;90.00;;;;;;5069875;28;20036;-66
2022/03/01 01:36:23;;;;;;;17.92;10.02;;;0.50;90.10;;;;;;5056765;28;20128;-66
2022/03/01 01:38:48;;;;;;;18.05;9.35;;;0.50;90.10;;;;;;5042478;28;20041;-65
2022/03/01 01:41:14;;;;;;;20.77;10.23;;;0.50;90.20;;;;;;5049622;28;20043;-66
2022/03/01 01:43:39;;;;;;;17.35;8.88;;;0.40;90.20;;;;;;5050709;28;20033;-66
2022/03/01 01:46:05;;;;;;;20.33;9.40;;;0.30;90.20;;;;;;5064762;28;20041;-65
2022/03/01 01:48:31;;;;;;;20.98;9.50;;;0.40;90.50;;;;;;5059655;28;20055;-66
2022/03/01 01:50:56;;;;;;;20.50;9.20;;;0.40;90.50;;;;;;5055187;28;20333;-66
2022/03/01 01:53:22;;;;;;;19.05;9.65;;;0.40;90.40;;;;;;5055175;28;20131;-66
2022/03/01 01:55:47;;;;;;;19.27;10.00;;;0.40;90.70;;;;;;5035558;28;20048;-65
2022/03/01 01:58:13;;;;;;;18.52;9.27;;;0.40;90.70;;;;;;5064223;28;20066;-66
2022/03/01 02:00:39;;;;;;;16.95;8.75;;;0.30;90.70;;;;;;5054044;28;20033;-66
2022/03/01 02:03:04;;;;;;;20.08;9.52;;;0.40;90.70;;;;;;5035672;28;20385;-65
2022/03/01 02:05:30;;;;;;;20.85;10.40;;;0.40;90.70;;;;;;5049867;28;20389;-65
2022/03/01 02:07:56;;;;;;;19.10;10.00;;;0.40;90.70;;;;;;5053149;28;20239;-65
2022/03/01 02:10:22;;;;;;;18.95;9.63;;;0.30;90.90;;;;;;5033159;28;20036;-65
2022/03/01 02:12:48;;;;;;;23.25;11.02;;;0.40;91.30;;;;;;5049424;28;20041;-66
2022/03/01 02:15:15;;;;;;;19.40;10.07;;;0.30;91.00;;;;;;5056270;28;20053;-66
2022/03/01 02:17:41;;;;;;;21.02;10.55;;;0.30;91.30;;;;;;5068038;28;20505;-66
2022/03/01 02:20:18;;;;;;;20.48;10.07;;;0.20;91.10;;;;;;5058937;28;20072;-65
2022/03/01 02:22:44;;;;;;;20.55;9.27;;;0.20;91.50;;;;;;5057704;28;20029;-66
2022/03/01 02:25:11;;;;;;;22.05;10.05;;;0.20;91.30;;;;;;5036227;28;20044;-66
2022/03/01 02:27:37;;;;;;;20.50;9.93;;;0.20;91.40;;;;;;5058180;28;20048;-66
2022/03/01 02:30:04;;;;;;;20.48;9.98;;;0.10;91.50;;;;;;5050595;28;20405;-66
2022/03/01 02:32:30;;;;;;;24.52;10.25;;;0.10;91.40;;;;;;5050501;28;20052;-66
2022/03/01 02:34:55;;;;;;;23.55;10.15;;;0.10;91.50;;;;;;5066851;28;20028;-66
2022/03/01 02:37:21;;;;;;;18.75;10.32;;;0.10;91.50;;;;;;5061375;28;20140;-65
2022/03/01 02:39:46;;;;;;;15.38;8.77;;;0.10;91.50;;;;;;5063222;28;20041;-66
2022/03/01 02:42:12;;;;;;;20.92;10.18;;;0.00;91.60;;;;;;5051288;28;20041;-66
2022/03/01 02:44:37;;;;;;;24.55;10.07;;;0.00;91.50;;;;;;5032687;28;20033;-66
2022/03/01 02:47:03;;;;;;;21.05;10.30;;;0.10;91.80;;;;;;5054195;28;20361;-66
2022/03/01 02:49:29;;;;;;;23.17;11.27;;;0.10;91.80;;;;;;5036642;28;20040;-66
2022/03/01 02:51:54;;;;;;;21.48;10.27;;;0.10;91.80;;;;;;5048925;28;20083;-65
2022/03/01 02:54:20;;;;;;;23.13;11.43;;;0.10;91.60;;;;;;5048545;28;20040;-66
2022/03/01 02:56:45;;;;;;;24.15;10.38;;;0.00;91.80;;;;;;5062229;28;20049;-67
2022/03/01 02:59:11;;;;;;;26.58;10.38;;;0.00;91.80;;;;;;5059361;28;20059;-66
2022/03/01 03:01:37;;;;;;;19.70;10.20;;;0.00;91.90;;;;;;5061287;28;20102;-65
2022/03/01 03:04:03;;;;;;;20.40;9.77;;;-0.10;91.90;;;;;;5058237;28;20037;-66
2022/03/01 03:06:30;;;;;;;21.02;10.23;;;-0.10;92.00;;;;;;5047599;28;20052;-66
2022/03/01 03:08:56;;;;;;;22.77;10.30;;;-0.20;92.10;;;;;;5049152;28;20195;-66
2022/03/01 03:11:22;;;;;;;18.67;10.10;;;-0.10;92.30;;;;;;5055895;28;20048;-66
2022/03/01 03:13:48;;;;;;;22.17;10.40;;;-0.20;92.40;;;;;;5060456;28;20093;-66
2022/03/01 03:16:15;;;;;;;19.90;10.48;;;-0.10;92.70;;;;;;5057059;28;20048;-66
2022/03/01 03:18:40;;;;;;;23.52;11.45;;;-0.20;92.30;;;;;;5047903;28;20128;-66
2022/03/01 03:21:06;;;;;;;24.23;11.18;;;-0.10;92.20;;;;;;5048545;28;20164;-66
2022/03/01 03:23:33;;;;;;;19.90;10.18;;;-0.20;92.30;;;;;;5048979;28;20517;-65
2022/03/01 03:25:58;;;;;;;21.08;9.55;;;-0.20;92.50;;;;;;5051321;28;20448;-65
2022/03/01 03:28:24;;;;;;;26.60;11.63;;;-0.10;93.10;;;;;;5051313;28;20025;-65
2022/03/01 03:30:50;;;;;;;25.98;12.10;;;-0.10;92.70;;;;;;5064089;28;20044;-66
2022/03/01 03:33:15;;;;;;;21.00;10.25;;;-0.10;92.80;;;;;;5049281;28;20037;-65
2022/03/01 03:35:41;;;;;;;25.02;11.40;;;-0.10;92.80;;;;;;5062895;28;20483;-65
2022/03/01 03:38:08;;;;;;;24.13;11.43;;;0.00;92.80;;;;;;5067209;28;20350;-65
2022/03/01 03:40:33;;;;;;;28.05;12.48;;;0.00;92.90;;;;;;5048792;28;20110;-66
2022/03/01 03:42:59;;;;;;;24.33;12.07;;;0.00;93.00;;;;;;5056664;28;20029;-66
2022/03/01 03:45:24;;;;;;;22.27;10.45;;;0.00;92.90;;;;;;5061907;28;20032;-66
2022/03/01 03:47:50;;;;;;;24.20;11.15;;;0.00;92.90;;;;;;5050703;28;20573;-66
2022/03/01 03:50:15;;;;;;;23.77;11.88;;;0.00;92.90;;;;;;5052467;28;20536;-66
2022/03/01 03:52:41;;;;;;;24.88;11.13;;;0.00;92.90;;;;;;5061180;28;20044;-66
2022/03/01 03:55:09;;;;;;;25.98;11.35;;;-0.10;93.00;;;;;;5047909;28;20099;-66
2022/03/01 03:57:36;;;;;;;21.25;11.68;;;-0.10;93.10;;;;;;5032577;28;20110;-66
2022/03/01 04:00:05;;;;;;;22.55;11.15;;;-0.10;93.10;;;;;;5038600;28;20116;-66
2022/03/01 04:02:31;;;;;;;25.97;12.20;;;-0.10;93.10;;;;;;5053345;28;20048;-66
2022/03/01 04:04:56;;;;;;;24.45;10.95;;;-0.10;93.10;;;;;;5051091;28;20056;-65
2022/03/01 04:07:22;;;;;;;23.65;11.05;;;-0.20;93.10;;;;;;5061183;28;20035;-65
2022/03/01 04:09:47;;;;;;;26.85;12.45;;;-0.20;93.30;;;;;;5056418;28;20033;-66
2022/03/01 04:12:13;;;;;;;25.58;12.13;;;-0.20;93.60;;;;;;5051672;28;20064;-66
2022/03/01 04:14:39;;;;;;;24.92;11.60;;;-0.20;93.80;;;;;;5043709;28;20464;-66
2022/03/01 04:17:04;;;;;;;27.95;12.65;;;-0.20;93.70;;;;;;5061567;28;20045;-66
2022/03/01 04:19:30;;;;;;;21.95;10.93;;;-0.20;93.80;;;;;;5066047;28;20638;-66
2022/03/01 04:21:55;;;;;;;24.98;11.63;;;-0.20;93.90;;;;;;5051749;28;20044;-66
2022/03/01 04:24:21;;;;;;;22.38;11.23;;;-0.20;93.80;;;;;;5064118;28;20483;-66
2022/03/01 04:26:47;;;;;;;24.60;11.93;;;-0.10;93.80;;;;;;5052051;28;20041;-66
2022/03/01 04:29:13;;;;;;;23.88;11.07;;;-0.10;93.60;;;;;;5042922;28;20040;-66
2022/03/01 04:31:38;;;;;;;26.48;12.68;;;-0.10;93.40;;;;;;5055659;28;20098;-66
2022/03/01 04:34:04;;;;;;;21.60;10.85;;;0.10;94.00;;;;;;5063918;28;20047;-65
2022/03/01 04:36:30;;;;;;;22.65;12.02;;;0.20;93.10;;;;;;5053219;28;20068;-66
2022/03/01 04:38:55;;;;;;;21.42;11.30;;;0.30;92.80;;;;;;5036060;28;20059;-66
2022/03/01 04:41:21;;;;;;;23.15;11.45;;;0.30;92.70;;;;;;5036074;28;20545;-66
2022/03/01 04:43:47;;;;;;;22.80;11.50;;;0.40;92.60;;;;;;5059251;28;20126;-65
2022/03/01 04:46:12;;;;;;;20.13;10.90;;;0.50;92.30;;;;;;5059766;28;20148;-66
2022/03/01 04:48:38;;;;;;;25.27;12.70;;;0.50;92.20;;;;;;5062362;28;20087;-66
2022/03/01 04:51:04;;;;;;;22.75;11.75;;;0.50;92.10;;;;;;5053249;28;20041;-66
2022/03/01 04:53:30;;;;;;;22.70;11.48;;;0.50;91.90;;;;;;5062763;28;20203;-66
2022/03/01 04:55:56;;;;;;;21.80;11.68;;;0.50;91.90;;;;;;5059759;28;20227;-65
2022/03/01 04:58:21;;;;;;;21.00;11.15;;;0.50;91.90;;;;;;5068379;28;20072;-66
2022/03/01 05:00:47;;;;;;;23.92;12.05;;;0.60;92.00;;;;;;5056243;28;20107;-66
2022/03/01 05:03:12;;;;;;;23.98;10.85;;;0.60;91.80;;;;;;5064027;28;20123;-66
2022/03/01 05:05:38;;;;;;;23.17;10.95;;;0.60;91.80;;;;;;5048303;28;20449;-65
2022/03/01 05:08:04;;;;;;;22.23;11.52;;;0.70;91.80;;;;;;5052656;28;20384;-66
2022/03/01 05:10:29;;;;;;;22.15;11.50;;;0.80;91.30;;;;;;5067785;28;20029;-66
2022/03/01 05:12:59;;;;;;;19.80;10.65;;;0.80;91.20;;;;;;5050226;28;20037;-66
2022/03/01 05:15:27;;;;;;;21.25;9.85;;;0.90;91.10;;;;;;5050018;28;20045;-66
2022/03/01 05:17:54;;;;;;;18.27;10.95;;;0.90;91.10;;;;;;5034365;28;20069;-66
2022/03/01 05:20:20;;;;;;;26.45;11.95;;;0.90;91.00;;;;;;5067650;28;20032;-66
2022/03/01 05:22:47;;;;;;;21.65;10.57;;;0.90;91.10;;;;;;5063917;28;20235;-66
2022/03/01 05:25:15;;;;;;;18.95;10.32;;;1.00;90.90;;;;;;5059603;28;20051;-66
2022/03/01 05:27:43;;;;;;;20.45;10.25;;;1.00;90.90;;;;;;5069413;28;20502;-66
2022/03/01 05:30:11;;;;;;;22.42;11.27;;;1.00;90.80;;;;;;5050322;28;20041;-66
2022/03/01 05:32:39;;;;;;;26.70;11.10;;;1.10;91.10;;;;;;5069293;28;20095;-66
2022/03/01 05:35:09;;;;;;;20.95;11.38;;;1.10;90.80;;;;;;5051254;28;20033;-66
2022/03/01 05:37:36;;;;;;;23.65;11.25;;;1.10;90.70;;;;;;5034919;28;20111;-66
2022/03/01 05:40:02;;;;;;;22.38;10.93;;;1.10;90.70;;;;;;5062732;28;20028;-66
2022/03/01 05:42:27;;;;;;;23.02;11.20;;;1.00;90.90;;;;;;5046345;28;20036;-66
2022/03/01 05:44:53;;;;;;;23.92;11.65;;;1.00;91.00;;;;;;5065378;28;20033;-70
2022/03/01 05:47:18;;;;;;;23.52;10.95;;;0.90;91.10;;;;;;5051317;28;20059;-66
2022/03/01 05:49:44;;;;;;;23.38;11.98;;;0.80;91.20;;;;;;5052079;28;20049;-65
2022/03/01 05:52:09;;;;;;;25.73;11.75;;;0.80;91.30;;;;;;5049568;28;20060;-66
2022/03/01 05:54:35;;;;;;;24.30;12.27;;;0.80;91.70;;;;;;5057148;28;20044;-66
2022/03/01 05:57:01;;;;;;;25.63;13.20;;;0.80;91.80;;;;;;5063661;28;20055;-66
2022/03/01 05:59:26;;;;;;;23.50;12.27;;;0.70;91.90;;;;;;5053150;28;20376;-66
2022/03/01 06:01:52;;;;;;;25.05;12.70;;;0.70;92.20;;;;;;5056289;28;20043;-66
2022/03/01 06:04:17;;;;;;;24.70;11.50;;;0.70;92.40;;;;;;5046225;28;20033;-66
2022/03/01 06:06:43;;;;;;;24.67;12.13;;;0.60;92.50;;;;;;5051779;28;20124;-66
2022/03/01 06:09:09;;;;;;;26.92;13.05;;;0.60;92.60;;;;;;5064958;28;20044;-66
2022/03/01 06:11:34;;;;;;;27.70;12.23;;;0.60;93.00;;;;;;5057152;28;20117;-66
2022/03/01 06:14:00;;;;;;;28.08;13.50;;;0.50;93.10;;;;;;5018089;28;1021116;-66
2022/03/01 06:16:25;;;;;;;27.00;14.48;;;0.50;93.20;;;;;;5060105;28;20040;-66
2022/03/01 06:18:51;;;;;;;25.73;12.88;;;0.40;93.40;;;;;;5052493;28;20044;-66
2022/03/01 06:21:17;;;;;;;27.70;12.63;;;0.40;93.50;;;;;;5065576;28;20055;-66
2022/03/01 06:23:42;;;;;;;25.27;12.57;;;0.40;93.80;;;;;;5062337;28;20049;-66
2022/03/01 06:26:08;;;;;;;29.70;13.50;;;0.30;94.00;;;;;;5051028;28;20449;-66
2022/03/01 06:28:35;;;;;;;25.98;13.55;;;0.30;94.20;;;;;;5034907;28;20441;-65
2022/03/01 06:31:00;;;;;;;27.75;13.70;;;0.30;94.30;;;;;;5049643;28;20037;-66
2022/03/01 06:33:26;;;;;;;29.75;13.88;;;0.20;94.40;;;;;;5051148;28;20535;-65
2022/03/01 06:35:51;;;;;;;28.20;14.15;;;0.20;94.80;;;;;;5052060;28;20055;-66
2022/03/01 06:38:17;;;;;;;29.63;13.43;;;0.10;95.00;;;;;;5058338;28;20195;-66
2022/03/01 06:40:42;;;;;;;27.65;12.32;;;0.20;95.10;;;;;;5036697;28;20500;-66
2022/03/01 06:43:08;;;;;;;29.75;13.05;;;0.20;95.20;;;;;;5057766;28;20052;-66
2022/03/01 06:45:34;;;;;;;25.08;13.32;;;0.30;95.00;;;;;;5050965;28;20080;-66
2022/03/01 06:47:59;;;;;;;25.65;13.40;;;0.30;95.00;;;;;;5050112;28;20041;-66
2022/03/01 06:50:26;;;;;;;32.75;14.50;;;0.40;95.10;;;;;;5049235;28;20133;-66
2022/03/01 06:52:52;;;;;;;28.95;13.80;;;0.40;94.90;;;;;;5044863;28;20385;-66
2022/03/01 06:55:21;;;;;;;32.42;13.50;;;0.50;94.80;;;;;;5056875;28;20045;-66
2022/03/01 06:57:47;;;;;;;27.15;13.88;;;0.50;94.90;;;;;;5051798;28;20121;-66
2022/03/01 07:00:15;;;;;;;30.45;13.10;;;0.60;94.80;;;;;;5053500;28;20033;-66
2022/03/01 07:02:41;;;;;;;30.05;14.43;;;0.60;94.80;;;;;;5063714;28;20033;-66
2022/03/01 07:05:09;;;;;;;26.92;13.48;;;0.70;95.10;;;;;;5056907;28;20051;-66
2022/03/01 07:07:35;;;;;;;28.90;13.55;;;0.70;95.00;;;;;;5049337;28;20037;-67
2022/03/01 07:10:02;;;;;;;24.58;13.32;;;0.80;94.90;;;;;;5048312;28;20036;-66
2022/03/01 07:12:27;;;;;;;27.17;13.05;;;0.80;94.80;;;;;;5042865;28;20045;-66
2022/03/01 07:14:53;;;;;;;27.02;12.82;;;0.80;94.60;;;;;;5032785;28;20065;-66
2022/03/01 07:17:19;;;;;;;31.13;14.05;;;0.90;94.70;;;;;;5065767;28;20384;-66
2022/03/01 07:19:46;;;;;;;27.00;14.18;;;1.00;94.90;;;;;;5047523;28;20051;-66
2022/03/01 07:22:12;;;;;;;28.08;13.13;;;1.10;94.80;;;;;;5044786;28;20048;-66
2022/03/01 07:24:37;;;;;;;29.40;13.57;;;1.30;94.90;;;;;;5042507;28;20136;-66
2022/03/01 07:27:03;;;;;;;26.92;12.95;;;1.40;94.80;;;;;;5033191;28;20484;-66
2022/03/01 07:29:30;;;;;;;27.55;13.82;;;1.50;94.60;;;;;;5041899;28;20079;-67
2022/03/01 07:31:57;;;;;;;28.52;14.00;;;1.60;94.30;;;;;;5049694;28;20037;-66
2022/03/01 07:34:23;;;;;;;28.88;14.45;;;1.80;94.30;;;;;;5033803;28;20401;-66
2022/03/01 07:36:49;;;;;;;27.13;13.60;;;1.90;94.00;;;;;;5054484;28;20044;-66
2022/03/01 07:39:14;;;;;;;26.38;13.52;;;2.00;93.80;;;;;;5049291;28;20037;-66
2022/03/01 07:41:40;;;;;;;25.42;12.73;;;2.10;92.90;;;;;;5053416;28;20047;-66
2022/03/01 07:44:06;;;;;;;24.35;13.00;;;2.20;93.00;;;;;;5062085;28;20029;-67
2022/03/01 07:46:31;;;;;;;24.33;12.40;;;2.30;92.60;;;;;;5047790;28;20504;-66
2022/03/01 07:48:57;;;;;;;23.25;12.50;;;2.30;92.30;;;;;;5056405;28;20390;-66
2022/03/01 07:51:22;;;;;;;25.17;12.65;;;2.50;91.60;;;;;;5038894;28;20120;-67
2022/03/01 07:53:48;;;;;;;26.33;13.73;;;2.60;90.80;;;;;;5056610;28;20036;-66
2022/03/01 07:56:14;;;;;;;23.40;13.05;;;2.80;90.00;;;;;;5038812;28;20044;-66
2022/03/01 07:58:40;;;;;;;28.85;13.07;;;2.90;87.40;;;;;;5067813;28;20119;-66
2022/03/01 08:01:05;;;;;;;25.55;11.93;;;3.10;88.90;;;;;;5068412;28;20120;-66
2022/03/01 08:03:31;;;;;;;25.60;11.45;;;3.20;88.50;;;;;;5042847;28;20072;-67
2022/03/01 08:05:57;;;;;;;24.48;11.73;;;3.40;86.60;;;;;;5056000;28;20036;-66
2022/03/01 08:08:23;;;;;;;28.00;12.38;;;3.40;86.80;;;;;;5053709;28;20037;-66
2022/03/01 08:10:49;;;;;;;26.40;12.10;;;3.50;86.60;;;;;;5033030;28;20053;-66
2022/03/01 08:13:16;;;;;;;22.10;12.30;;;3.60;86.20;;;;;;5049618;28;20048;-67
2022/03/01 08:15:42;;;;;;;24.50;12.13;;;3.70;85.90;;;;;;5060504;28;20044;-67
2022/03/01 08:18:07;;;;;;;23.17;12.00;;;3.70;84.90;;;;;;5069440;28;20040;-67
2022/03/01 08:20:33;;;;;;;22.83;11.65;;;3.80;83.50;;;;;;5048462;28;20041;-66
2022/03/01 08:22:58;;;;;;;21.42;11.40;;;3.90;84.20;;;;;;5059508;28;20395;-67
2022/03/01 08:25:24;;;;;;;24.85;13.27;;;3.90;83.70;;;;;;5052894;28;20136;-67
2022/03/01 08:27:50;;;;;;;25.95;12.75;;;4.00;84.00;;;;;;5035716;28;20364;-67
2022/03/01 08:30:17;;;;;;;24.13;11.30;;;4.00;83.90;;;;;;5059010;28;20040;-67
2022/03/01 08:32:43;;;;;;;22.45;13.00;;;4.10;83.60;;;;;;5044473;28;20080;-66
2022/03/01 08:35:09;;;;;;;24.88;12.45;;;4.10;82.30;;;;;;5047881;28;20080;-67
2022/03/01 08:37:35;;;;;;;22.98;11.90;;;4.10;82.60;;;;;;5048095;28;20052;-67
2022/03/01 08:40:02;;;;;;;23.17;11.77;;;4.20;82.20;;;;;;5050400;28;20416;-67
2022/03/01 08:42:28;;;;;;;22.75;11.63;;;4.20;79.40;;;;;;5048257;28;20469;-67
2022/03/01 08:44:53;;;;;;;24.75;12.13;;;4.30;82.00;;;;;;5040452;28;20035;-67
2022/03/01 08:47:19;;;;;;;27.48;12.25;;;4.40;80.80;;;;;;5037155;28;20071;-67
2022/03/01 08:49:44;;;;;;;24.67;12.20;;;4.50;81.00;;;;;;5049228;28;20147;-67
2022/03/01 08:52:10;;;;;;;24.00;11.93;;;4.50;79.60;;;;;;5061566;28;20577;-66
2022/03/01 08:54:35;;;;;;;22.15;11.55;;;4.60;78.70;;;;;;5057841;28;20040;-67
2022/03/01 08:57:01;;;;;;;23.30;11.82;;;4.70;77.40;;;;;;5050341;28;20044;-67
2022/03/01 08:59:27;;;;;;;22.08;11.63;;;4.90;78.90;;;;;;5064199;28;20128;-67
2022/03/01 09:01:52;;;;;;;22.27;11.75;;;5.00;76.00;;;;;;5063333;28;20040;-67
2022/03/01 09:04:18;;;;;;;22.27;11.05;;;5.10;75.40;;;;;;5051813;28;20049;-66
2022/03/01 09:06:43;;;;;;;20.27;11.13;;;5.30;75.60;;;;;;5047891;28;20119;-67
2022/03/01 09:09:09;;;;;;;25.25;12.73;;;5.30;71.10;;;;;;5062266;28;20133;-67
2022/03/01 09:11:34;;;;;;;26.42;12.43;;;5.40;74.30;;;;;;5055447;28;20072;-67
2022/03/01 09:14:00;;;;;;;23.38;11.90;;;5.50;72.30;;;;;;5062248;28;20463;-67
2022/03/01 09:16:26;;;;;;;20.63;11.15;;;5.60;74.50;;;;;;5055948;28;20099;-67
2022/03/01 09:18:51;;;;;;;24.08;11.93;;;5.70;74.60;;;;;;5061508;28;20056;-67
2022/03/01 09:21:17;;;;;;;22.23;12.35;;;5.70;73.20;;;;;;5042114;28;20045;-67
2022/03/01 09:23:43;;;;;;;22.88;11.23;;;5.80;72.80;;;;;;5063798;28;20086;-68
2022/03/01 09:26:10;;;;;;;24.17;11.68;;;5.80;68.10;;;;;;5049713;28;20488;-68
2022/03/01 09:28:36;;;;;;;20.00;10.68;;;5.90;69.40;;;;;;5057556;28;20109;-68
2022/03/01 09:31:02;;;;;;;24.58;12.05;;;5.90;70.00;;;;;;5043298;28;20052;-67
2022/03/01 09:33:27;;;;;;;19.33;11.40;;;5.90;67.80;;;;;;5051944;28;20136;-68
2022/03/01 09:35:53;;;;;;;21.98;11.18;;;5.90;67.00;;;;;;5039619;28;20038;-67
2022/03/01 09:38:18;;;;;;;20.45;11.45;;;6.10;71.60;;;;;;5054491;28;20182;-67
2022/03/01 09:40:47;;;;;;;24.27;11.95;;;6.10;68.40;;;;;;5059868;28;20442;-68
2022/03/01 09:43:13;;;;;;;21.60;10.93;;;6.20;71.40;;;;;;5063673;28;20110;-67
2022/03/01 09:45:38;;;;;;;21.20;11.23;;;6.40;71.30;;;;;;5071117;28;20483;-67
2022/03/01 09:48:04;;;;;;;19.88;10.48;;;6.30;69.40;;;;;;5070869;28;20044;-67
2022/03/01 09:50:30;;;;;;;20.70;11.50;;;6.50;71.20;;;;;;5057800;28;20041;-67
2022/03/01 09:52:58;;;;;;;20.52;12.02;;;6.60;71.90;;;;;;5049390;28;20396;-67
2022/03/01 09:55:25;;;;;;;19.90;11.27;;;6.60;70.30;;;;;;5049994;28;20594;-67
2022/03/01 09:57:50;;;;;;;19.13;10.63;;;6.60;69.60;;;;;;5054327;28;20029;-68
2022/03/01 10:00:17;;;;;;;19.42;10.85;;;6.80;69.60;;;;;;5050524;28;20041;-67
2022/03/01 10:02:43;;;;;;;21.88;11.45;;;6.90;70.60;;;;;;5050713;28;20698;-67
2022/03/01 10:05:10;;;;;;;19.25;11.60;;;7.00;69.00;;;;;;5037704;28;20139;-67
2022/03/01 10:07:40;;;;;;;19.92;11.35;;;6.90;69.30;;;;;;5052939;28;20040;-67
2022/03/01 10:10:09;;;;;;;21.98;10.80;;;7.00;69.40;;;;;;5061964;28;20428;-67
2022/03/01 10:12:35;;;;;;;18.92;11.25;;;7.00;69.10;;;;;;5049553;28;20059;-67
2022/03/01 10:15:06;;;;;;;18.38;11.05;;;7.10;70.00;;;;;;5057623;28;20059;-67
2022/03/01 10:17:50;;;;;;;19.63;11.05;;;7.00;67.70;;;;;;5058529;28;20242;-67
2022/03/01 10:20:18;;;;;;;19.23;11.27;;;7.00;67.30;;;;;;5049220;28;20049;-68
2022/03/01 10:22:45;;;;;;;20.38;11.05;;;7.00;68.70;;;;;;5069408;28;20056;-67
2022/03/01 10:25:12;;;;;;;21.48;12.05;;;7.00;69.40;;;;;;5070174;28;20040;-67
2022/03/01 10:27:38;;;;;;;18.48;10.90;;;7.10;69.00;;;;;;5068588;28;20474;-68
2022/03/01 10:30:06;;;;;;;19.15;11.20;;;7.10;68.50;;;;;;5051172;28;20041;-69
2022/03/01 10:32:33;;;;;;;20.77;11.77;;;7.10;67.80;;;;;;5034305;28;20055;-67
2022/03/01 10:35:04;;;;;;;20.83;11.88;;;7.20;67.20;;;;;;5048873;28;20033;-67
2022/03/01 10:37:31;;;;;;;20.20;11.48;;;7.20;68.70;;;;;;5049360;28;20045;-66
2022/03/01 10:40:11;;;;;;;18.90;11.38;;;7.40;68.60;;;;;;5049828;28;20504;-67
2022/03/01 10:42:38;;;;;;;20.77;11.80;;;7.50;66.50;;;;;;5058960;28;20162;-67
2022/03/01 10:45:05;;;;;;;21.85;11.43;;;7.60;66.50;;;;;;5045487;28;20388;-66
2022/03/01 10:47:32;;;;;;;20.75;11.55;;;7.60;65.50;;;;;;5041040;28;20480;-67
2022/03/01 10:50:03;;;;;;;20.80;11.05;;;7.80;67.40;;;;;;5055831;28;20037;-67
2022/03/01 10:52:34;;;;;;;21.67;10.95;;;7.90;62.80;;;;;;5054319;28;20143;-67
2022/03/01 10:55:00;;;;;;;20.05;10.95;;;7.90;63.40;;;;;;5065601;28;20036;-67
2022/03/01 10:57:26;;;;;;;20.88;11.23;;;8.10;66.00;;;;;;5054742;28;20074;-66
2022/03/01 10:59:52;;;;;;;20.65;11.52;;;8.40;65.40;;;;;;5046026;28;20044;-67
2022/03/01 11:02:18;;;;;;;16.60;11.10;;;8.50;65.20;;;;;;5063168;28;20038;-68
2022/03/01 11:04:44;;;;;;;20.30;10.77;;;8.60;59.70;;;;;;5055558;28;20162;-67
2022/03/01 11:07:11;;;;;;;19.35;11.30;;;8.70;62.60;;;;;;5031132;28;20099;-67
2022/03/01 11:09:37;;;;;;;21.40;11.50;;;9.00;62.50;;;;;;5037420;28;20171;-67
2022/03/01 11:12:06;;;;;;;18.80;10.77;;;9.30;60.70;;;;;;5049556;28;20374;-67
2022/03/01 11:15:13;;;;;;;18.17;10.93;;;9.50;60.60;;;;;;5048780;28;20633;-68
2022/03/01 11:18:00;;;;;;;17.95;11.05;;;9.70;57.00;;;;;;5041240;28;20496;-67
2022/03/01 11:20:35;;;;;;;21.52;11.30;;;9.70;58.20;;;;;;5062038;28;20045;-67
2022/03/01 11:23:07;;;;;;;18.80;10.48;;;9.90;57.80;;;;;;5051241;28;20099;-67
2022/03/01 11:25:38;;;;;;;20.23;10.80;;;10.00;56.40;;;;;;5052743;28;20449;-67
2022/03/01 11:28:08;;;;;;;21.02;11.07;;;10.20;56.90;;;;;;5059578;28;20178;-68
2022/03/01 11:30:36;;;;;;;19.90;11.07;;;10.30;58.20;;;;;;5038658;28;20025;-67
2022/03/01 11:33:02;;;;;;;20.40;10.93;;;10.50;58.40;;;;;;5064278;28;20081;-68
2022/03/01 11:35:34;;;;;;;18.80;11.43;;;10.40;57.90;;;;;;5055634;28;20033;-67
2022/03/01 11:38:13;;;;;;;18.33;11.60;;;10.60;57.70;;;;;;5057666;28;20040;-67
2022/03/01 11:40:42;;;;;;;18.33;11.40;;;10.20;56.00;;;;;;5049207;28;20075;-69
2022/03/01 11:43:14;;;;;;;17.13;11.00;;;10.30;56.00;;;;;;5048270;28;20124;-68
2022/03/01 11:45:48;;;;;;;19.20;11.43;;;10.30;56.10;;;;;;5039683;28;20503;-68
2022/03/01 11:48:16;;;;;;;17.77;11.30;;;10.30;56.80;;;;;;5060484;28;20086;-68
2022/03/01 11:50:49;;;;;;;20.20;11.75;;;10.30;58.20;;;;;;5030853;28;20505;-67
2022/03/01 11:53:17;;;;;;;22.33;11.40;;;10.40;56.40;;;;;;5048598;28;20393;-67
2022/03/01 11:55:45;;;;;;;19.25;11.18;;;10.40;58.20;;;;;;5033855;28;20109;-67
2022/03/01 11:58:12;;;;;;;20.88;11.48;;;10.30;56.40;;;;;;5049206;28;20037;-68
2022/03/01 12:00:39;;;;;;;18.27;10.65;;;10.30;56.10;;;;;;5069208;28;20040;-68
2022/03/01 12:03:09;;;;;;;19.27;11.18;;;10.40;56.00;;;;;;5052785;28;20098;-68
2022/03/01 12:05:36;;;;;;;18.58;11.18;;;10.40;54.30;;;;;;5050604;28;20070;-67
2022/03/01 12:08:05;;;;;;;20.65;11.25;;;10.40;53.70;;;;;;5066894;28;20436;-68
2022/03/01 12:10:31;;;;;;;16.88;10.40;;;10.70;54.70;;;;;;5049765;28;20397;-68
2022/03/01 12:12:56;;;;;;;20.02;11.48;;;10.80;54.90;;;;;;5048054;28;20048;-68
2022/03/01 12:15:31;;;;;;;18.42;11.85;;;10.80;54.80;;;;;;5048795;28;20515;-68
2022/03/01 12:18:08;;;;;;;14.48;10.73;;;10.90;51.40;;;;;;5049172;28;20053;-68
2022/03/01 12:20:34;;;;;;;19.42;11.60;;;10.80;53.00;;;;;;5066281;28;20048;-68
2022/03/01 12:23:04;;;;;;;18.13;11.82;;;10.90;55.10;;;;;;5066863;28;20380;-68
2022/03/01 12:25:35;;;;;;;19.52;12.25;;;11.00;55.20;;;;;;5052180;28;20337;-68
2022/03/01 12:28:03;;;;;;;17.55;11.70;;;11.00;53.90;;;;;;5068345;28;20090;-68
2022/03/01 12:30:32;;;;;;;18.67;10.90;;;11.10;53.70;;;;;;5039279;28;20037;-68
2022/03/01 12:32:59;;;;;;;19.63;12.23;;;11.10;52.20;;;;;;5067890;28;20507;-67